createdAt,value
2022-09-07T00:00:10.911Z,73.60
2022-09-07T00:01:10.907Z,73.60
2022-09-07T00:02:10.993Z,73.90
2022-09-07T00:03:11.019Z,74.00
2022-09-07T00:04:10.949Z,74.10
2022-09-07T00:05:10.872Z,73.80
2022-09-07T00:06:10.858Z,73.60
2022-09-07T00:07:10.843Z,74.00
2022-09-07T00:08:10.838Z,73.93
2022-09-07T00:09:10.852Z,73.93
2022-09-07T00:10:10.818Z,74.03
2022-09-07T00:11:10.813Z,73.83
2022-09-07T00:12:10.795Z,74.23
2022-09-07T00:13:10.787Z,73.73
2022-09-07T00:14:10.770Z,73.93
2022-09-07T00:15:11.776Z,73.83
2022-09-07T00:16:10.800Z,74.33
2022-09-07T00:17:10.748Z,73.93
2022-09-07T00:18:10.740Z,73.83
2022-09-07T00:19:10.735Z,73.93
2022-09-07T00:20:10.815Z,74.23
2022-09-07T00:21:10.707Z,74.03
2022-09-07T00:22:10.700Z,73.93
2022-09-07T00:23:10.685Z,74.23
2022-09-07T00:24:10.684Z,73.93
2022-09-07T00:25:10.718Z,73.53
2022-09-07T00:26:10.659Z,73.93
2022-09-07T00:27:10.648Z,74.33
2022-09-07T00:28:10.646Z,74.23
2022-09-07T00:29:10.633Z,74.84
2022-09-07T00:30:10.625Z,75.23
2022-09-07T00:31:10.711Z,74.93
2022-09-07T00:32:10.601Z,75.23
2022-09-07T00:33:10.593Z,74.87
2022-09-07T00:34:10.583Z,74.93
2022-09-07T00:35:10.573Z,75.04
2022-09-07T00:36:10.612Z,74.73
2022-09-07T00:37:10.558Z,75.23
2022-09-07T00:38:10.548Z,75.27
2022-09-07T00:39:10.541Z,75.27
2022-09-07T00:40:10.558Z,75.43
2022-09-07T00:41:10.528Z,75.34
2022-09-07T00:42:10.530Z,75.07
2022-09-07T00:43:10.500Z,75.17
2022-09-07T00:44:10.491Z,75.67
2022-09-07T00:45:10.482Z,75.74
2022-09-07T00:46:10.511Z,75.63
2022-09-07T00:47:10.479Z,75.63
2022-09-07T00:48:10.451Z,76.07
2022-09-07T00:49:10.445Z,75.54
2022-09-07T00:50:10.437Z,76.07
2022-09-07T00:51:10.425Z,75.63
2022-09-07T00:52:10.429Z,75.23
2022-09-07T00:53:10.414Z,75.34
2022-09-07T00:54:10.396Z,75.17
2022-09-07T00:55:10.386Z,75.57
2022-09-07T00:56:10.379Z,75.67
2022-09-07T00:57:10.386Z,75.97
2022-09-07T00:58:10.357Z,75.07
2022-09-07T00:59:10.353Z,75.97
2022-09-07T01:00:10.343Z,75.97
2022-09-07T01:01:10.338Z,75.47
2022-09-07T01:02:10.466Z,76.57
2022-09-07T01:03:10.310Z,76.37
2022-09-07T01:04:10.308Z,77.17
2022-09-07T01:05:10.292Z,76.98
2022-09-07T01:06:10.283Z,76.67
2022-09-07T01:07:10.297Z,77.08
2022-09-07T01:08:10.265Z,77.28
2022-09-07T01:09:10.256Z,76.98
2022-09-07T01:10:10.244Z,77.17
2022-09-07T01:11:10.235Z,76.71
2022-09-07T01:12:10.222Z,77.51
2022-09-07T01:13:10.228Z,77.41
2022-09-07T01:14:10.204Z,76.98
2022-09-07T01:15:10.196Z,77.01
2022-09-07T01:16:10.256Z,77.17
2022-09-07T01:17:10.174Z,76.71
2022-09-07T01:18:10.177Z,77.11
2022-09-07T01:19:10.150Z,76.78
2022-09-07T01:20:10.144Z,77.11
2022-09-07T01:21:10.136Z,76.98
2022-09-07T01:22:10.129Z,76.98
2022-09-07T01:23:10.159Z,76.67
2022-09-07T01:24:10.109Z,76.91
2022-09-07T01:25:10.101Z,76.47
2022-09-07T01:26:10.085Z,76.98
2022-09-07T01:27:10.075Z,77.17
2022-09-07T01:28:10.108Z,77.08
2022-09-07T01:29:10.059Z,76.98
2022-09-07T01:30:10.056Z,77.17
2022-09-07T01:31:10.078Z,76.98
2022-09-07T01:32:10.033Z,77.08
2022-09-07T01:33:10.022Z,77.37
2022-09-07T01:34:10.041Z,76.87
2022-09-07T01:35:10.004Z,76.98
2022-09-07T01:36:09.996Z,77.24
2022-09-07T01:37:09.986Z,76.98
2022-09-07T01:38:09.973Z,77.08
2022-09-07T01:39:10.005Z,77.08
2022-09-07T01:40:10.023Z,77.08
2022-09-07T01:41:09.945Z,77.34
2022-09-07T01:42:09.938Z,77.28
2022-09-07T01:43:09.920Z,77.17
2022-09-07T01:44:09.914Z,77.08
2022-09-07T01:45:09.930Z,77.17
2022-09-07T01:46:09.943Z,77.08
2022-09-07T01:47:09.887Z,77.08
2022-09-07T01:48:09.877Z,76.87
2022-09-07T01:49:09.870Z,77.17
2022-09-07T01:50:09.897Z,76.98
2022-09-07T01:51:09.866Z,76.78
2022-09-07T01:52:09.847Z,76.78
2022-09-07T01:53:09.829Z,76.57
2022-09-07T01:54:09.821Z,76.78
2022-09-07T01:55:09.810Z,77.08
2022-09-07T01:56:09.816Z,77.17
2022-09-07T01:57:09.794Z,76.98
2022-09-07T01:58:09.784Z,76.67
2022-09-07T01:59:09.776Z,76.67
2022-09-07T02:00:09.764Z,77.17
2022-09-07T02:01:09.781Z,76.57
2022-09-07T02:02:09.807Z,77.58
2022-09-07T02:03:09.788Z,77.41
2022-09-07T02:04:09.721Z,77.37
2022-09-07T02:05:09.709Z,76.57
2022-09-07T02:06:09.745Z,77.58
2022-09-07T02:07:09.695Z,77.08
2022-09-07T02:08:09.686Z,77.17
2022-09-07T02:09:09.677Z,77.48
2022-09-07T02:10:09.662Z,77.28
2022-09-07T02:11:09.660Z,77.58
2022-09-07T02:12:09.667Z,77.58
2022-09-07T02:13:09.638Z,77.48
2022-09-07T02:14:09.629Z,77.58
2022-09-07T02:15:09.621Z,77.48
2022-09-07T02:16:09.648Z,77.21
2022-09-07T02:17:09.630Z,77.37
2022-09-07T02:18:09.589Z,77.41
2022-09-07T02:19:09.585Z,77.58
2022-09-07T02:20:09.572Z,77.61
2022-09-07T02:21:09.570Z,77.78
2022-09-07T02:22:09.583Z,77.51
2022-09-07T02:23:09.543Z,77.98
2022-09-07T02:24:09.535Z,77.98
2022-09-07T02:25:09.522Z,77.87
2022-09-07T02:26:09.513Z,78.18
2022-09-07T02:27:09.503Z,78.08
2022-09-07T02:28:09.508Z,77.81
2022-09-07T02:29:09.482Z,77.78
2022-09-07T02:30:09.473Z,77.67
2022-09-07T02:31:09.513Z,78.08
2022-09-07T02:32:09.454Z,78.08
2022-09-07T02:33:09.471Z,78.08
2022-09-07T02:34:10.434Z,78.08
2022-09-07T02:35:09.425Z,78.08
2022-09-07T02:36:09.412Z,77.98
2022-09-07T02:37:09.402Z,77.48
2022-09-07T02:38:09.431Z,77.98
2022-09-07T02:39:09.386Z,77.37
2022-09-07T02:40:09.432Z,77.78
2022-09-07T02:41:09.364Z,78.08
2022-09-07T02:42:09.356Z,77.58
2022-09-07T02:43:09.342Z,78.08
2022-09-07T02:44:09.374Z,77.98
2022-09-07T02:45:09.328Z,79.38
2022-09-07T02:46:09.328Z,79.18
2022-09-07T02:47:09.306Z,79.58
2022-09-07T02:48:09.298Z,79.92
2022-09-07T02:49:09.347Z,82.63
2022-09-07T02:50:09.279Z,83.77
2022-09-07T02:51:09.269Z,84.88
2022-09-07T02:52:09.260Z,85.52
2022-09-07T02:53:09.249Z,86.66
2022-09-07T02:54:09.242Z,85.82
2022-09-07T02:55:09.270Z,86.62
2022-09-07T02:56:09.217Z,86.62
2022-09-07T02:57:09.210Z,87.96
2022-09-07T02:58:09.207Z,89.01
2022-09-07T02:59:09.192Z,89.06
2022-09-07T03:00:09.215Z,88.71
2022-09-07T03:01:09.312Z,89.31
2022-09-07T03:02:09.192Z,90.97
2022-09-07T03:03:09.153Z,90.86
2022-09-07T03:04:09.142Z,90.77
2022-09-07T03:05:09.135Z,88.90
2022-09-07T03:06:09.139Z,90.00
2022-09-07T03:07:09.114Z,90.41
2022-09-07T03:08:09.105Z,89.80
2022-09-07T03:09:09.099Z,89.10
2022-09-07T03:10:09.088Z,89.50
2022-09-07T03:11:09.121Z,90.85
2022-09-07T03:12:09.070Z,89.80
2022-09-07T03:13:09.059Z,90.45
2022-09-07T03:14:09.050Z,89.95
2022-09-07T03:15:09.041Z,89.64
2022-09-07T03:16:09.096Z,90.85
2022-09-07T03:17:09.022Z,90.41
2022-09-07T03:18:09.008Z,90.65
2022-09-07T03:19:09.000Z,86.63
2022-09-07T03:20:09.000Z,85.36
2022-09-07T03:21:08.980Z,86.46
2022-09-07T03:22:09.014Z,87.73
2022-09-07T03:23:08.966Z,86.77
2022-09-07T03:24:08.956Z,83.54
2022-09-07T03:25:08.964Z,82.78
2022-09-07T03:26:08.934Z,86.87
2022-09-07T03:27:08.966Z,87.37
2022-09-07T03:28:08.917Z,86.46
2022-09-07T03:29:08.905Z,85.66
2022-09-07T03:30:08.895Z,85.11
2022-09-07T03:31:08.947Z,85.66
2022-09-07T03:32:08.877Z,87.13
2022-09-07T03:33:08.897Z,84.55
2022-09-07T03:34:08.861Z,84.95
2022-09-07T03:35:08.852Z,85.96
2022-09-07T03:36:08.839Z,86.63
2022-09-07T03:37:08.830Z,86.52
2022-09-07T03:38:08.848Z,86.72
2022-09-07T03:39:08.813Z,87.13
2022-09-07T03:40:08.914Z,87.02
2022-09-07T03:41:08.793Z,86.12
2022-09-07T03:42:08.786Z,85.92
2022-09-07T03:43:08.769Z,86.22
2022-09-07T03:44:08.796Z,85.72
2022-09-07T03:45:08.745Z,86.12
2022-09-07T03:46:09.792Z,86.22
2022-09-07T03:47:08.737Z,87.13
2022-09-07T03:48:08.722Z,87.37
2022-09-07T03:49:08.755Z,87.57
2022-09-07T03:50:08.701Z,87.57
2022-09-07T03:51:08.695Z,87.27
2022-09-07T03:52:08.692Z,87.93
2022-09-07T03:53:08.677Z,88.13
2022-09-07T03:54:40.587Z,88.74
2022-09-07T03:55:08.658Z,87.77
2022-09-07T03:56:08.645Z,89.03
2022-09-07T03:57:08.636Z,90.07
2022-09-07T03:58:08.629Z,89.83
2022-09-07T03:59:08.627Z,90.73
2022-09-07T04:00:08.644Z,90.03
2022-09-07T04:01:08.657Z,89.23
2022-09-07T04:02:08.630Z,89.73
2022-09-07T04:03:08.576Z,89.32
2022-09-07T04:04:08.567Z,90.48
2022-09-07T04:05:08.865Z,90.92
2022-09-07T04:06:08.546Z,91.22
2022-09-07T04:07:08.538Z,91.22
2022-09-07T04:08:08.530Z,90.98
2022-09-07T04:09:08.517Z,91.18
2022-09-07T04:10:08.511Z,90.78
2022-09-07T04:11:08.517Z,91.08
2022-09-07T04:12:08.502Z,89.53
2022-09-07T04:13:08.483Z,89.26
2022-09-07T04:14:08.469Z,89.77
2022-09-07T04:15:08.465Z,89.63
2022-09-07T04:16:08.482Z,89.37
2022-09-07T04:17:08.494Z,89.57
2022-09-07T04:18:08.434Z,88.72
2022-09-07T04:19:08.426Z,89.17
2022-09-07T04:20:08.422Z,88.92
2022-09-07T04:21:08.453Z,89.23
2022-09-07T04:22:08.397Z,88.52
2022-09-07T04:23:08.384Z,88.82
2022-09-07T04:24:08.377Z,89.12
2022-09-07T04:25:08.390Z,88.62
2022-09-07T04:26:08.355Z,89.03
2022-09-07T04:27:08.361Z,89.03
2022-09-07T04:28:08.335Z,88.22
2022-09-07T04:29:08.325Z,89.03
2022-09-07T04:30:08.316Z,88.92
2022-09-07T04:31:08.357Z,89.12
2022-09-07T04:32:11.374Z,89.03
2022-09-07T04:33:09.282Z,88.52
2022-09-07T04:34:08.276Z,88.32
2022-09-07T04:35:08.263Z,88.12
2022-09-07T04:36:08.258Z,88.42
2022-09-07T04:37:08.270Z,88.82
2022-09-07T04:38:08.238Z,88.32
2022-09-07T04:39:08.230Z,89.12
2022-09-07T04:40:08.270Z,88.42
2022-09-07T04:41:08.209Z,89.12
2022-09-07T04:42:08.260Z,88.82
2022-09-07T04:43:08.203Z,88.92
2022-09-07T04:44:08.176Z,89.47
2022-09-07T04:45:08.174Z,90.48
2022-09-07T04:46:08.196Z,90.78
2022-09-07T04:47:08.178Z,91.22
2022-09-07T04:48:08.138Z,91.13
2022-09-07T04:49:08.131Z,91.02
2022-09-07T04:50:08.124Z,90.92
2022-09-07T04:51:08.115Z,90.92
2022-09-07T04:52:08.111Z,91.22
2022-09-07T04:53:08.125Z,91.42
2022-09-07T04:54:08.089Z,91.22
2022-09-07T04:55:08.082Z,91.63
2022-09-07T04:56:08.070Z,91.42
2022-09-07T04:57:08.062Z,91.63
2022-09-07T04:58:08.093Z,91.22
2022-09-07T04:59:08.063Z,91.13
2022-09-07T05:00:08.042Z,90.92
2022-09-07T05:01:08.079Z,90.98
2022-09-07T05:02:08.061Z,90.98
2022-09-07T05:03:08.006Z,91.18
2022-09-07T05:04:08.040Z,90.58
2022-09-07T05:05:07.988Z,90.68
2022-09-07T05:06:07.989Z,90.07
2022-09-07T05:07:07.969Z,90.07
2022-09-07T05:08:07.956Z,89.67
2022-09-07T05:09:07.965Z,89.87
2022-09-07T05:10:07.943Z,90.17
2022-09-07T05:11:07.929Z,89.87
2022-09-07T05:12:07.914Z,89.87
2022-09-07T05:13:07.907Z,90.82
2022-09-07T05:14:07.922Z,92.27
2022-09-07T05:15:07.885Z,92.78
2022-09-07T05:16:07.934Z,93.38
2022-09-07T05:17:07.861Z,93.18
2022-09-07T05:18:07.855Z,93.29
2022-09-07T05:19:07.883Z,92.88
2022-09-07T05:20:07.863Z,92.47
2022-09-07T05:21:07.830Z,92.83
2022-09-07T05:22:07.819Z,92.43
2022-09-07T05:23:07.805Z,92.54
2022-09-07T05:24:07.806Z,92.47
2022-09-07T05:25:07.807Z,91.53
2022-09-07T05:26:07.779Z,92.52
2022-09-07T05:27:07.774Z,94.18
2022-09-07T05:28:07.756Z,95.19
2022-09-07T05:32:09.720Z,96.60
2022-09-07T05:33:07.697Z,96.10
2022-09-07T05:35:09.726Z,95.90
2022-09-07T05:36:07.681Z,95.95
2022-09-07T05:37:07.672Z,95.30
2022-09-07T05:38:07.667Z,94.80
2022-09-07T05:39:07.656Z,94.49
2022-09-07T05:40:07.776Z,94.25
2022-09-07T05:41:07.654Z,93.74
2022-09-07T05:42:07.624Z,93.14
2022-09-07T05:43:07.614Z,92.23
2022-09-07T05:45:09.599Z,92.39
2022-09-07T05:46:07.662Z,92.09
2022-09-07T05:47:07.583Z,91.69
2022-09-07T05:48:07.568Z,91.34
2022-09-07T05:49:07.558Z,90.94
2022-09-07T05:50:07.591Z,90.49
2022-09-07T05:51:07.555Z,90.64
2022-09-07T05:52:07.538Z,89.59
2022-09-07T05:53:07.520Z,90.09
2022-09-07T05:54:07.508Z,89.08
2022-09-07T05:55:28.793Z,88.78
2022-09-07T05:56:09.525Z,88.68
2022-09-07T05:57:07.539Z,88.74
2022-09-07T05:58:07.469Z,89.39
2022-09-07T05:59:07.458Z,89.34
2022-09-07T06:00:07.449Z,89.34
2022-09-07T06:01:07.456Z,88.43
2022-09-07T06:02:07.527Z,89.04
2022-09-07T06:03:07.574Z,89.04
2022-09-07T06:04:07.412Z,89.00
2022-09-07T06:05:07.400Z,88.39
2022-09-07T06:06:07.406Z,88.59
2022-09-07T06:07:23.500Z,88.59
2022-09-07T06:08:09.362Z,88.19
2022-09-07T06:09:07.345Z,87.85
2022-09-07T06:11:09.385Z,87.35
2022-09-07T06:12:07.329Z,87.45
2022-09-07T06:13:07.320Z,86.65
2022-09-07T06:14:07.311Z,86.34
2022-09-07T06:15:07.301Z,86.65
2022-09-07T06:16:07.359Z,86.44
2022-09-07T06:17:07.303Z,85.64
2022-09-07T06:18:07.271Z,85.50
2022-09-07T06:19:07.265Z,84.99
2022-09-07T06:20:07.250Z,85.10
2022-09-07T06:21:07.243Z,85.10
2022-09-07T06:22:07.256Z,85.70
2022-09-07T06:23:07.226Z,85.96
2022-09-07T06:24:07.215Z,85.80
2022-09-07T06:25:07.206Z,85.25
2022-09-07T06:26:07.199Z,85.36
2022-09-07T06:27:07.199Z,85.86
2022-09-07T06:28:07.174Z,85.96
2022-09-07T06:29:07.181Z,85.56
2022-09-07T06:30:07.154Z,84.61
2022-09-07T06:31:07.150Z,84.81
2022-09-07T06:33:09.129Z,83.57
2022-09-07T06:34:07.145Z,83.47
2022-09-07T06:35:07.124Z,82.87
2022-09-07T06:36:07.099Z,82.87
2022-09-07T06:37:07.110Z,82.87
2022-09-07T06:38:07.078Z,82.67
2022-09-07T06:39:07.065Z,82.76
2022-09-07T06:40:07.151Z,82.43
2022-09-07T06:42:09.056Z,82.63
2022-09-07T06:43:07.030Z,82.12
2022-09-07T06:44:07.023Z,81.82
2022-09-07T06:45:07.012Z,81.23
2022-09-07T06:47:09.055Z,81.42
2022-09-07T06:48:06.984Z,82.32
2022-09-07T06:49:06.974Z,82.39
2022-09-07T06:50:06.993Z,82.09
2022-09-07T06:51:06.952Z,81.73
2022-09-07T06:52:06.961Z,80.42
2022-09-07T06:55:08.921Z,81.32
2022-09-07T06:56:06.908Z,81.42
2022-09-07T06:57:06.931Z,81.42
2022-09-07T06:58:06.903Z,80.92
2022-09-07T06:59:06.883Z,80.68
2022-09-07T07:00:06.874Z,80.28
2022-09-07T07:01:06.940Z,80.28
2022-09-07T07:02:06.869Z,80.79
2022-09-07T07:03:06.916Z,80.58
2022-09-07T07:04:06.835Z,80.28
2022-09-07T07:05:06.819Z,79.24
2022-09-07T07:06:06.811Z,78.64
2022-09-07T07:07:06.817Z,78.04
2022-09-07T07:08:06.810Z,78.44
2022-09-07T07:09:06.833Z,79.44
2022-09-07T07:10:06.797Z,79.24
2022-09-07T07:11:06.766Z,78.20
2022-09-07T07:12:06.780Z,77.50
2022-09-07T07:13:06.762Z,76.60
2022-09-07T07:14:06.731Z,75.96
2022-09-07T07:15:06.738Z,76.87
2022-09-07T07:16:06.768Z,77.23
2022-09-07T07:17:06.720Z,75.89
2022-09-07T07:18:20.227Z,74.16
2022-09-07T07:19:08.690Z,73.42
2022-09-07T07:20:06.682Z,72.59
2022-09-07T07:21:06.668Z,71.19
2022-09-07T07:23:08.661Z,71.89
2022-09-07T07:24:08.304Z,71.79
2022-09-07T07:25:07.642Z,71.59
2022-09-07T07:26:06.628Z,71.22
2022-09-07T07:27:06.617Z,70.95
2022-09-07T07:29:08.591Z,68.90
2022-09-07T07:30:06.603Z,68.16
2022-09-07T07:31:09.971Z,67.73
2022-09-07T07:32:08.595Z,66.14
2022-09-07T07:33:07.248Z,65.87
2022-09-07T07:34:06.587Z,65.74
2022-09-07T07:35:06.534Z,63.82
2022-09-07T07:36:06.530Z,63.02
2022-09-07T07:37:06.512Z,63.35
2022-09-07T07:40:15.234Z,68.23
2022-09-07T07:42:08.466Z,73.96
2022-09-07T07:43:07.611Z,74.46
2022-09-07T07:44:06.433Z,73.19
2022-09-07T07:46:08.449Z,75.34
2022-09-07T07:47:06.408Z,75.77
2022-09-07T07:48:06.459Z,76.17
2022-09-07T07:49:06.397Z,76.37
2022-09-07T07:50:36.400Z,77.48
2022-09-07T07:51:11.874Z,77.44
2022-09-07T07:54:08.341Z,75.70
2022-09-07T07:55:42.795Z,76.70
2022-09-07T07:56:08.322Z,76.54
2022-09-07T07:57:06.325Z,77.44
2022-09-07T07:58:06.313Z,77.20
2022-09-07T07:59:06.305Z,76.10
2022-09-07T08:00:06.280Z,76.26
2022-09-07T08:01:06.333Z,75.76
2022-09-07T08:02:06.399Z,75.56
2022-09-07T08:03:06.306Z,75.37
2022-09-07T08:04:06.272Z,75.73
2022-09-07T08:05:06.234Z,75.93
2022-09-07T08:06:06.221Z,73.79
2022-09-07T08:07:10.568Z,76.33
2022-09-07T08:08:07.221Z,74.79
2022-09-07T08:09:06.204Z,74.22
2022-09-07T08:10:06.188Z,73.19
2022-09-07T08:11:06.178Z,72.69
2022-09-07T08:12:06.163Z,72.63
2022-09-07T08:13:06.177Z,72.42
2022-09-07T08:14:06.146Z,73.13
2022-09-07T08:15:06.133Z,72.33
2022-09-07T08:16:06.157Z,72.56
2022-09-07T08:17:06.114Z,73.86
2022-09-07T08:18:06.100Z,73.83
2022-09-07T08:19:06.108Z,74.96
2022-09-07T08:20:06.083Z,73.53
2022-09-07T08:21:06.082Z,73.93
2022-09-07T08:22:06.068Z,73.29
2022-09-07T08:23:06.049Z,73.49
2022-09-07T08:24:06.067Z,72.09
2022-09-07T08:25:06.036Z,70.86
2022-09-07T08:26:06.023Z,71.59
2022-09-07T08:27:06.022Z,72.29
2022-09-07T08:28:06.011Z,70.36
2022-09-07T08:29:06.008Z,69.96
2022-09-07T08:30:05.995Z,71.46
2022-09-07T08:31:06.055Z,70.99
2022-09-07T08:32:05.961Z,68.46
2022-09-07T08:33:05.955Z,68.33
2022-09-07T08:34:05.974Z,67.70
2022-09-07T08:35:05.932Z,65.57
2022-09-07T08:36:05.924Z,64.87
2022-09-07T08:37:05.926Z,65.87
2022-09-07T08:38:05.903Z,65.74
2022-09-07T08:39:05.907Z,64.81
2022-09-07T08:40:05.937Z,65.21
2022-09-07T08:41:05.873Z,63.12
2022-09-07T08:42:05.865Z,63.92
2022-09-07T08:43:05.854Z,64.31
2022-09-07T08:44:05.860Z,63.05
2022-09-07T08:45:05.831Z,64.58
2022-09-07T08:46:05.828Z,64.61
2022-09-07T08:47:05.893Z,65.07
2022-09-07T08:48:05.802Z,66.09
2022-09-07T08:49:05.823Z,67.33
2022-09-07T08:50:05.829Z,69.20
2022-09-07T08:51:05.805Z,69.09
2022-09-07T08:52:05.772Z,67.40
2022-09-07T08:53:05.760Z,68.40
2022-09-07T08:54:05.788Z,68.16
2022-09-07T08:55:05.755Z,68.16
2022-09-07T08:56:05.729Z,67.66
2022-09-07T08:57:21.486Z,67.76
2022-09-07T08:58:14.526Z,68.56
2022-09-07T08:59:06.722Z,68.76
2022-09-07T09:00:05.700Z,67.43
2022-09-07T09:04:15.983Z,66.30
2022-09-07T09:05:23.041Z,66.00
2022-09-07T09:06:07.735Z,65.67
2022-09-07T09:07:05.788Z,66.27
2022-09-07T09:08:05.613Z,65.47
2022-09-07T09:09:05.651Z,66.07
2022-09-07T09:10:05.659Z,66.27
2022-09-07T09:11:05.626Z,65.84
2022-09-07T09:12:05.570Z,65.57
2022-09-07T09:13:05.565Z,65.24
2022-09-07T09:14:05.594Z,64.94
2022-09-07T09:15:05.547Z,63.25
2022-09-07T09:16:05.588Z,64.07
2022-09-07T09:17:05.529Z,65.31
2022-09-07T09:18:05.532Z,64.28
2022-09-07T09:19:05.506Z,65.57
2022-09-07T09:20:05.519Z,65.74
2022-09-07T09:21:05.489Z,64.84
2022-09-07T09:22:05.478Z,64.04
2022-09-07T09:23:05.470Z,63.85
2022-09-07T09:24:05.458Z,64.15
2022-09-07T09:25:05.464Z,64.75
2022-09-07T09:26:05.437Z,64.75
2022-09-07T09:27:05.427Z,64.84
2022-09-07T09:28:05.421Z,63.95
2022-09-07T09:29:05.410Z,65.14
2022-09-07T09:30:05.432Z,64.64
2022-09-07T09:31:05.428Z,64.04
2022-09-07T09:32:05.383Z,63.85
2022-09-07T09:33:05.375Z,64.15
2022-09-07T09:34:05.400Z,64.01
2022-09-07T09:35:05.385Z,63.92
2022-09-07T09:36:05.343Z,63.02
2022-09-07T09:37:05.332Z,64.01
2022-09-07T09:38:05.326Z,63.59
2022-09-07T09:39:05.321Z,63.29
2022-09-07T09:40:05.335Z,63.32
2022-09-07T09:41:05.312Z,63.98
2022-09-07T09:42:05.287Z,63.79
2022-09-07T09:43:05.284Z,63.49
2022-09-07T09:44:05.265Z,63.69
2022-09-07T09:45:05.257Z,62.89
2022-09-07T09:46:12.702Z,62.10
2022-09-07T09:48:07.228Z,61.83
2022-09-07T09:49:05.218Z,62.95
2022-09-07T09:50:05.206Z,64.04
2022-09-07T09:53:07.184Z,63.39
2022-09-07T09:54:05.172Z,62.79
2022-09-07T09:55:33.116Z,63.36
2022-09-07T09:56:07.184Z,62.76
2022-09-07T09:57:05.142Z,61.40
2022-09-07T09:59:56.668Z,63.16
2022-09-07T10:00:10.509Z,62.26
2022-09-07T10:01:24.042Z,62.07
2022-09-07T10:04:09.637Z,62.70
2022-09-07T10:05:07.079Z,61.21
2022-09-07T10:06:05.066Z,62.10
2022-09-07T10:07:05.063Z,62.21
2022-09-07T10:08:05.040Z,61.41
2022-09-07T10:09:05.028Z,60.82
2022-09-07T10:10:05.030Z,60.12
2022-09-07T10:11:05.010Z,60.19
2022-09-07T10:12:05.672Z,59.42
2022-09-07T10:13:05.994Z,59.85
2022-09-07T10:14:04.980Z,60.74
2022-09-07T10:15:04.975Z,61.51
2022-09-07T10:16:04.971Z,61.80
2022-09-07T10:17:04.963Z,61.31
2022-09-07T10:18:04.940Z,61.48
2022-09-07T10:19:04.930Z,59.36
2022-09-07T10:20:04.923Z,59.27
2022-09-07T10:21:04.910Z,59.04
2022-09-07T10:22:04.920Z,59.14
2022-09-07T10:23:04.895Z,58.61
2022-09-07T10:24:04.883Z,58.02
2022-09-07T10:25:04.875Z,57.53
2022-09-07T10:26:04.863Z,58.02
2022-09-07T10:27:04.888Z,58.72
2022-09-07T10:28:04.841Z,58.74
2022-09-07T10:29:08.321Z,58.77
2022-09-07T10:30:06.988Z,58.67
2022-09-07T10:31:05.831Z,58.74
2022-09-07T10:32:04.914Z,57.13
2022-09-07T10:33:04.793Z,57.72
2022-09-07T10:35:06.783Z,57.20
2022-09-07T10:36:04.771Z,56.97
2022-09-07T10:37:04.764Z,56.65
2022-09-07T10:38:04.770Z,55.24
2022-09-07T10:39:04.747Z,55.30
2022-09-07T10:40:04.763Z,55.01
2022-09-07T10:41:04.727Z,55.41
2022-09-07T10:42:04.710Z,53.99
2022-09-07T10:44:06.697Z,54.96
2022-09-07T10:45:04.681Z,53.72
2022-09-07T10:46:04.813Z,56.02
2022-09-07T10:47:04.713Z,55.21
2022-09-07T10:48:04.673Z,54.98
2022-09-07T10:49:04.648Z,54.19
2022-09-07T10:51:13.642Z,52.46
2022-09-07T10:52:06.625Z,52.95
2022-09-07T10:53:23.443Z,53.72
2022-09-07T10:55:06.602Z,52.28
2022-09-07T10:56:04.586Z,51.18
2022-09-07T10:57:04.582Z,51.28
2022-09-07T10:58:04.588Z,49.87
2022-09-07T10:59:04.882Z,50.59
2022-09-07T11:00:08.283Z,51.40
2022-09-07T11:01:05.637Z,51.13
2022-09-07T11:02:04.534Z,51.42
2022-09-07T11:04:06.516Z,52.04
2022-09-07T11:05:04.544Z,51.77
2022-09-07T11:06:04.507Z,51.57
2022-09-07T11:07:04.499Z,52.78
2022-09-07T11:08:04.521Z,53.97
2022-09-07T11:09:20.092Z,53.22
2022-09-07T11:10:06.464Z,52.36
2022-09-07T11:11:04.460Z,52.21
2022-09-07T11:12:04.884Z,51.13
2022-09-07T11:13:04.439Z,52.22
2022-09-07T11:14:13.119Z,53.18
2022-09-07T11:15:06.420Z,53.15
2022-09-07T11:16:04.669Z,53.12
2022-09-07T11:17:04.693Z,52.09
2022-09-07T11:18:04.393Z,50.76
2022-09-07T11:20:06.376Z,50.73
2022-09-07T11:21:04.369Z,50.16
2022-09-07T11:22:04.358Z,49.48
2022-09-07T11:23:04.346Z,50.76
2022-09-07T11:24:04.379Z,49.96
2022-09-07T11:25:34.271Z,49.87
2022-09-07T11:26:06.323Z,50.16
2022-09-07T11:27:04.309Z,49.77
2022-09-07T11:28:04.302Z,51.00
2022-09-07T11:30:06.282Z,49.92
2022-09-07T11:31:04.365Z,50.02
2022-09-07T11:32:04.261Z,50.81
2022-09-07T11:33:04.240Z,50.63
2022-09-07T11:35:06.242Z,50.88
2022-09-07T11:36:06.565Z,52.41
2022-09-07T11:37:04.213Z,52.61
2022-09-07T11:38:04.206Z,52.22
2022-09-07T11:39:04.204Z,51.89
2022-09-07T11:40:04.339Z,52.22
2022-09-07T11:41:04.176Z,53.06
2022-09-07T11:42:42.636Z,54.86
2022-09-07T11:43:09.320Z,54.24
2022-09-07T11:44:05.153Z,53.20
2022-09-07T11:45:04.163Z,53.08
2022-09-07T11:46:04.179Z,51.54
2022-09-07T11:47:05.125Z,51.69
2022-09-07T11:48:04.113Z,49.62
2022-09-07T11:49:04.683Z,50.26
2022-09-07T11:50:05.112Z,51.45
2022-09-07T11:51:04.091Z,51.25
2022-09-07T11:52:05.504Z,50.14
2022-09-07T11:53:05.075Z,50.63
2022-09-07T11:54:04.062Z,49.27
2022-09-07T11:55:04.108Z,50.78
2022-09-07T11:56:04.044Z,51.05
2022-09-07T11:57:04.034Z,49.99
2022-09-07T11:58:04.027Z,50.85
2022-09-07T11:59:04.015Z,52.56
2022-09-07T12:00:04.053Z,52.96
2022-09-07T12:01:04.001Z,52.44
2022-09-07T12:02:03.991Z,52.22
2022-09-07T12:03:04.039Z,51.30
2022-09-07T12:04:04.095Z,51.30
2022-09-07T12:05:04.057Z,49.96
2022-09-07T12:06:03.969Z,49.55
2022-09-07T12:07:03.947Z,49.65
2022-09-07T12:08:03.941Z,49.15
2022-09-07T12:09:03.927Z,50.48
2022-09-07T12:10:03.919Z,50.95
2022-09-07T12:11:03.937Z,50.63
2022-09-07T12:12:03.906Z,49.74
2022-09-07T12:13:03.895Z,49.43
2022-09-07T12:14:04.891Z,47.85
2022-09-07T12:15:03.891Z,47.92
2022-09-07T12:16:03.947Z,48.19
2022-09-07T12:17:03.863Z,47.38
2022-09-07T12:18:03.855Z,47.19
2022-09-07T12:19:03.882Z,47.23
2022-09-07T12:20:03.921Z,48.19
2022-09-07T12:21:03.854Z,47.78
2022-09-07T12:22:03.815Z,46.87
2022-09-07T12:23:05.111Z,46.30
2022-09-07T12:24:04.788Z,47.58
2022-09-07T12:25:04.792Z,48.05
2022-09-07T12:26:03.789Z,48.07
2022-09-07T12:27:03.776Z,47.80
2022-09-07T12:28:03.760Z,47.82
2022-09-07T12:29:03.750Z,48.75
2022-09-07T12:30:03.768Z,49.45
2022-09-07T12:31:03.758Z,49.45
2022-09-07T12:33:05.764Z,49.03
2022-09-07T12:34:03.713Z,49.92
2022-09-07T12:35:03.698Z,49.79
2022-09-07T12:36:03.692Z,49.69
2022-09-07T12:37:03.727Z,49.79
2022-09-07T12:38:03.674Z,48.24
2022-09-07T12:39:03.669Z,48.44
2022-09-07T12:40:03.871Z,49.28
2022-09-07T12:41:03.651Z,47.97
2022-09-07T12:43:09.911Z,45.15
2022-09-07T12:44:04.676Z,44.78
2022-09-07T12:45:03.611Z,45.59
2022-09-07T12:46:03.730Z,45.41
2022-09-07T12:47:03.598Z,46.75
2022-09-07T12:48:04.790Z,46.94
2022-09-07T12:49:03.578Z,46.25
2022-09-07T12:50:03.573Z,45.07
2022-09-07T12:51:03.570Z,45.68
2022-09-07T12:52:14.930Z,45.29
2022-09-07T12:53:05.557Z,45.39
2022-09-07T12:54:03.530Z,44.92
2022-09-07T12:55:26.753Z,45.29
2022-09-07T12:56:20.962Z,47.01
2022-09-07T12:58:05.515Z,47.85
2022-09-07T12:59:03.486Z,47.65
2022-09-07T13:00:03.471Z,48.66
2022-09-07T13:01:05.596Z,49.74
2022-09-07T13:02:04.721Z,49.15
2022-09-07T13:03:04.289Z,49.84
2022-09-07T13:04:03.440Z,50.04
2022-09-07T13:05:03.442Z,49.45
2022-09-07T13:06:03.422Z,49.03
2022-09-07T13:07:03.694Z,48.24
2022-09-07T13:08:08.732Z,48.02
2022-09-07T13:09:05.391Z,48.63
2022-09-07T13:10:03.388Z,49.15
2022-09-07T13:11:03.377Z,49.48
2022-09-07T13:12:03.373Z,49.62
2022-09-07T13:13:03.385Z,49.74
2022-09-07T13:14:05.116Z,50.66
2022-09-07T13:15:05.564Z,51.07
2022-09-07T13:16:03.889Z,51.28
2022-09-07T13:17:18.786Z,52.66
2022-09-07T13:18:05.344Z,52.26
2022-09-07T13:19:03.301Z,51.94
2022-09-07T13:20:03.296Z,51.65
2022-09-07T13:21:03.289Z,51.35
2022-09-07T13:22:03.280Z,51.03
2022-09-07T13:23:04.519Z,51.13
2022-09-07T13:24:45.656Z,51.23
2022-09-07T13:25:05.259Z,50.73
2022-09-07T13:26:03.244Z,51.25
2022-09-07T13:27:03.241Z,51.87
2022-09-07T13:28:03.232Z,52.64
2022-09-07T13:29:03.233Z,52.24
2022-09-07T13:30:03.200Z,52.14
2022-09-07T13:31:03.289Z,51.25